Time;durP1;ratioP1;P1;durP2;ratioP2;P2;SDS_P1;SDS_P2;PMS_P1;PMS_P2;Temp;Humidity;BMP_temperature;BMP_pressure;BME280_temperature;BME280_humidity;BME280_pressure;Samples;Min_cycle;Max_cycle;Signal;HPM_P1;HPM_P2
2021/04/11 00:00:56;;;;;;;15.73;10.32;;;3.50;97.20;;;;;;4928247;29;20043;-70
2021/04/11 00:03:25;;;;;;;14.38;10.35;;;3.50;97.10;;;;;;4932157;29;20034;-70
2021/04/11 00:05:51;;;;;;;16.00;10.60;;;3.40;97.10;;;;;;4927422;29;20030;-70
2021/04/11 00:08:18;;;;;;;13.27;9.10;;;3.40;97.10;;;;;;4933458;29;20091;-70
2021/04/11 00:10:46;;;;;;;14.95;9.77;;;3.40;97.20;;;;;;4931370;29;20031;-69
2021/04/11 00:13:18;;;;;;;14.35;10.43;;;3.30;97.20;;;;;;4931788;29;20035;-70
2021/04/11 00:15:44;;;;;;;17.35;9.77;;;3.30;97.20;;;;;;4932154;29;20529;-69
2021/04/11 00:18:09;;;;;;;14.00;9.95;;;3.30;97.20;;;;;;4931627;29;20036;-70
2021/04/11 00:20:35;;;;;;;14.10;9.48;;;3.30;97.20;;;;;;4933151;29;20119;-70
2021/04/11 00:23:00;;;;;;;12.48;9.00;;;3.20;97.20;;;;;;4932304;29;20040;-69
2021/04/11 00:25:30;;;;;;;14.60;8.70;;;3.20;97.20;;;;;;4931881;29;20366;-70
2021/04/11 00:27:57;;;;;;;12.88;9.30;;;3.20;97.20;;;;;;4927772;29;20506;-69
2021/04/11 00:30:24;;;;;;;13.55;9.05;;;3.20;97.30;;;;;;4929052;29;20509;-69
2021/04/11 00:32:50;;;;;;;13.25;9.13;;;3.20;97.30;;;;;;4927904;29;20055;-69
2021/04/11 00:35:17;;;;;;;12.20;8.90;;;3.10;97.30;;;;;;4932365;29;20032;-69
2021/04/11 00:37:43;;;;;;;13.98;9.48;;;3.10;97.20;;;;;;4931846;29;20027;-69
2021/04/11 00:40:13;;;;;;;15.05;9.32;;;3.10;97.30;;;;;;4932058;29;20074;-70
2021/04/11 00:42:43;;;;;;;14.13;8.82;;;3.10;97.30;;;;;;4929322;29;20051;-70
2021/04/11 00:45:15;;;;;;;12.65;9.60;;;3.10;97.30;;;;;;4929699;29;20031;-69
2021/04/11 00:47:41;;;;;;;12.73;9.10;;;3.10;97.30;;;;;;4934646;29;20024;-70
2021/04/11 00:50:11;;;;;;;15.73;10.75;;;3.10;97.30;;;;;;4930855;29;20039;-69
2021/04/11 00:52:37;;;;;;;13.93;9.88;;;3.10;97.30;;;;;;4931397;29;20020;-70
2021/04/11 00:55:03;;;;;;;15.13;10.40;;;3.10;97.30;;;;;;4932731;29;20098;-69
2021/04/11 00:57:30;;;;;;;14.43;10.43;;;3.10;97.30;;;;;;4934201;29;20031;-68
2021/04/11 00:59:56;;;;;;;14.23;9.52;;;3.10;97.30;;;;;;4932387;29;20046;-68
2021/04/11 01:02:21;;;;;;;14.32;9.00;;;3.10;97.30;;;;;;4929755;29;20513;-69
2021/04/11 01:04:48;;;;;;;11.00;8.98;;;3.10;97.30;;;;;;4930016;29;20039;-69
2021/04/11 01:07:15;;;;;;;13.65;9.10;;;3.10;97.30;;;;;;4919226;29;20035;-70
2021/04/11 01:09:43;;;;;;;13.35;10.13;;;3.10;97.30;;;;;;4932751;29;20364;-69
2021/04/11 01:12:11;;;;;;;15.48;8.95;;;3.10;97.30;;;;;;4923961;29;20415;-69
2021/04/11 01:14:38;;;;;;;14.50;9.68;;;3.10;97.30;;;;;;4924507;29;20506;-67
2021/04/11 01:17:07;;;;;;;12.48;9.23;;;3.10;97.30;;;;;;4934773;29;20038;-69
2021/04/11 01:19:38;;;;;;;16.92;11.32;;;3.10;97.30;;;;;;4934578;29;20039;-69
2021/04/11 01:22:36;;;;;;;14.48;10.23;;;3.00;97.30;;;;;;4929788;29;20075;-69
2021/04/11 01:25:13;;;;;;;13.95;9.48;;;3.00;97.30;;;;;;4909853;29;20090;-69
2021/04/11 01:27:38;;;;;;;14.60;10.32;;;3.00;97.30;;;;;;4934107;29;20031;-69
2021/04/11 01:30:11;;;;;;;14.20;9.02;;;3.00;97.30;;;;;;4930731;29;20114;-70
2021/04/11 01:32:37;;;;;;;14.15;9.85;;;3.00;97.20;;;;;;4933349;29;20106;-69
2021/04/11 01:35:05;;;;;;;13.70;8.80;;;3.00;97.30;;;;;;4927608;29;20385;-69
2021/04/11 01:37:31;;;;;;;15.07;9.90;;;3.00;97.30;;;;;;4929240;29;20035;-70
2021/04/11 01:39:57;;;;;;;17.83;11.27;;;3.00;97.30;;;;;;4932735;29;20367;-70
2021/04/11 01:42:23;;;;;;;16.67;10.13;;;3.00;97.20;;;;;;4936675;29;20461;-70
2021/04/11 01:44:50;;;;;;;13.57;9.52;;;3.00;97.20;;;;;;4924770;29;20031;-70
2021/04/11 01:47:17;;;;;;;17.10;10.35;;;2.90;97.20;;;;;;4937126;29;20028;-70
2021/04/11 01:49:44;;;;;;;12.82;9.65;;;3.00;97.30;;;;;;4937523;29;20020;-70
2021/04/11 01:52:18;;;;;;;13.13;8.95;;;2.90;97.20;;;;;;4931389;29;20094;-70
2021/04/11 01:54:45;;;;;;;11.27;7.78;;;3.00;97.30;;;;;;4937494;29;20056;-70
2021/04/11 01:57:19;;;;;;;11.98;8.85;;;2.90;97.20;;;;;;4932562;29;20371;-70
2021/04/11 01:59:45;;;;;;;12.15;8.55;;;2.90;97.20;;;;;;4929567;29;20032;-70
2021/04/11 02:02:16;;;;;;;12.93;9.20;;;2.90;97.30;;;;;;4934505;29;20047;-70
2021/04/11 02:04:42;;;;;;;13.27;8.85;;;2.90;97.30;;;;;;4935903;29;20028;-70
2021/04/11 02:07:10;;;;;;;12.55;8.77;;;2.90;97.30;;;;;;4931857;29;20102;-70
2021/04/11 02:09:40;;;;;;;12.85;8.13;;;2.90;97.30;;;;;;4931409;29;20066;-70
2021/04/11 02:12:06;;;;;;;12.73;8.63;;;2.90;97.60;;;;;;4932782;29;20027;-70
2021/04/11 02:14:36;;;;;;;14.88;10.02;;;2.90;97.30;;;;;;4937037;29;20031;-70
2021/04/11 02:17:01;;;;;;;15.88;10.02;;;2.90;97.30;;;;;;4930305;29;20090;-70
2021/04/11 02:19:28;;;;;;;13.85;9.35;;;2.90;97.30;;;;;;4936205;28;20110;-70
2021/04/11 02:22:07;;;;;;;15.02;10.27;;;2.90;97.30;;;;;;4937005;29;20393;-70
2021/04/11 02:24:36;;;;;;;15.63;9.55;;;2.90;97.60;;;;;;4928342;29;20518;-70
2021/04/11 02:27:03;;;;;;;12.30;9.00;;;2.90;97.30;;;;;;4928857;29;20036;-70
2021/04/11 02:29:28;;;;;;;15.02;10.15;;;2.90;97.40;;;;;;4933701;29;20032;-70
2021/04/11 02:31:54;;;;;;;13.63;8.55;;;2.90;97.40;;;;;;4931809;29;20387;-70
2021/04/11 02:34:29;;;;;;;12.02;8.15;;;2.90;97.40;;;;;;4933314;29;20731;-70
2021/04/11 02:37:10;;;;;;;13.45;8.80;;;2.90;97.40;;;;;;4934189;29;20170;-70
2021/04/11 02:39:37;;;;;;;11.18;7.75;;;2.90;97.40;;;;;;4936286;29;20118;-70
2021/04/11 02:42:09;;;;;;;13.30;9.68;;;3.00;97.40;;;;;;4936171;29;20040;-70
2021/04/11 02:44:40;;;;;;;17.55;10.45;;;3.00;97.40;;;;;;4936425;29;20059;-70
2021/04/11 02:47:07;;;;;;;12.70;8.52;;;3.00;97.40;;;;;;4933823;29;20394;-70
2021/04/11 02:49:33;;;;;;;11.52;7.55;;;3.00;97.50;;;;;;4934948;29;20019;-69
2021/04/11 02:52:03;;;;;;;11.75;8.48;;;3.00;97.40;;;;;;4931351;29;20517;-69
2021/04/11 02:54:29;;;;;;;10.50;7.47;;;3.00;97.50;;;;;;4934793;29;20406;-69
2021/04/11 02:56:57;;;;;;;10.52;7.15;;;3.10;97.50;;;;;;4926177;29;20027;-69
2021/04/11 02:59:23;;;;;;;11.57;7.53;;;3.10;97.50;;;;;;4935631;29;20031;-68
2021/04/11 03:01:50;;;;;;;9.65;6.95;;;3.00;97.50;;;;;;4930327;29;20107;-69
2021/04/11 03:04:18;;;;;;;10.30;6.47;;;3.10;97.50;;;;;;4934844;29;20503;-68
2021/04/11 03:06:54;;;;;;;9.52;6.07;;;3.10;97.50;;;;;;4931906;29;20039;-69
2021/04/11 03:09:24;;;;;;;8.30;5.30;;;3.10;97.50;;;;;;4937083;29;20036;-68
2021/04/11 03:11:54;;;;;;;8.02;4.82;;;3.10;97.50;;;;;;4933493;29;20031;-69
2021/04/11 03:14:23;;;;;;;7.28;4.20;;;3.20;97.50;;;;;;4933023;29;20031;-70
2021/04/11 03:16:49;;;;;;;7.85;3.90;;;3.20;97.50;;;;;;4928095;29;20044;-69
2021/04/11 03:19:22;;;;;;;5.60;3.33;;;3.20;97.50;;;;;;4935737;29;20047;-69
2021/04/11 03:21:47;;;;;;;;;;;3.20;97.50;;;;;;4928413;29;20106;-69
2021/04/11 03:24:13;;;;;;;3.85;2.78;;;3.20;97.50;;;;;;4936072;29;20377;-69
2021/04/11 03:26:42;;;;;;;3.45;2.45;;;3.10;97.50;;;;;;4932194;29;20023;-69
2021/04/11 03:29:26;;;;;;;4.72;2.08;;;3.10;97.50;;;;;;4932432;29;20043;-69
2021/04/11 03:32:03;;;;;;;3.60;2.45;;;3.10;97.50;;;;;;4933799;29;20039;-69
2021/04/11 03:34:31;;;;;;;3.67;2.42;;;3.10;97.50;;;;;;4927822;29;20043;-69
2021/04/11 03:37:00;;;;;;;4.00;2.25;;;3.10;97.50;;;;;;4931167;29;20028;-69
2021/04/11 03:39:28;;;;;;;2.97;2.17;;;3.10;97.50;;;;;;4931787;29;20040;-69
2021/04/11 03:41:53;;;;;;;3.92;2.67;;;3.20;97.60;;;;;;4932090;29;20046;-69
2021/04/11 03:44:23;;;;;;;4.90;2.25;;;3.20;97.60;;;;;;4934892;29;20474;-69
2021/04/11 03:47:18;;;;;;;3.30;1.95;;;3.20;97.50;;;;;;4931372;29;20549;-69
2021/04/11 03:49:54;;;;;;;3.13;2.03;;;3.20;97.50;;;;;;4935970;29;20028;-69
2021/04/11 03:52:34;;;;;;;4.65;2.17;;;3.20;97.50;;;;;;4934329;29;20042;-69
2021/04/11 03:55:06;;;;;;;2.65;2.00;;;3.20;97.50;;;;;;4926301;29;20054;-69
2021/04/11 03:57:51;;;;;;;3.42;1.83;;;3.20;97.50;;;;;;4933492;29;20131;-69
2021/04/11 04:00:28;;;;;;;3.20;1.83;;;3.20;97.50;;;;;;4932276;29;20078;-69
2021/04/11 04:02:57;;;;;;;4.95;1.88;;;3.20;97.50;;;;;;4932188;29;20036;-70
2021/04/11 04:05:27;;;;;;;2.15;1.20;;;3.20;97.50;;;;;;4932581;29;20044;-69
2021/04/11 04:07:59;;;;;;;2.72;1.70;;;3.20;97.50;;;;;;4928354;29;20028;-69
2021/04/11 04:10:37;;;;;;;5.53;1.80;;;3.20;97.50;;;;;;4935321;29;20023;-69
2021/04/11 04:13:27;;;;;;;5.15;2.00;;;3.20;97.50;;;;;;4928967;29;20043;-69
2021/04/11 04:16:14;;;;;;;2.92;1.83;;;3.20;97.50;;;;;;4932983;29;20058;-69
2021/04/11 04:19:10;;;;;;;4.82;1.75;;;3.20;97.50;;;;;;4928760;29;20108;-69
2021/04/11 04:21:47;;;;;;;3.28;1.63;;;3.30;97.50;;;;;;4931338;29;20031;-69
2021/04/11 04:24:25;;;;;;;3.17;1.80;;;3.30;97.50;;;;;;4932151;29;20393;-69
2021/04/11 04:26:59;;;;;;;3.42;1.98;;;3.30;97.50;;;;;;4932660;29;20028;-70
2021/04/11 04:29:38;;;;;;;5.15;1.95;;;3.30;97.50;;;;;;4925210;29;20031;-69
2021/04/11 04:32:19;;;;;;;6.85;2.42;;;3.30;97.50;;;;;;4923861;29;20044;-69
2021/04/11 04:35:02;;;;;;;3.50;2.28;;;3.30;97.50;;;;;;4929850;29;20032;-69
2021/04/11 04:38:13;;;;;;;2.95;2.28;;;3.30;97.50;;;;;;4931019;29;20433;-69
2021/04/11 04:41:01;;;;;;;5.88;2.15;;;3.40;97.50;;;;;;4925506;29;20043;-69
2021/04/11 04:43:48;;;;;;;4.40;2.35;;;3.40;97.50;;;;;;4933464;29;20023;-69
2021/04/11 04:46:36;;;;;;;4.82;2.90;;;3.40;97.50;;;;;;4933226;29;20032;-69
2021/04/11 04:49:24;;;;;;;6.15;3.25;;;3.50;97.50;;;;;;4933069;29;20485;-69
2021/04/11 04:51:57;;;;;;;5.65;2.47;;;3.50;97.70;;;;;;4932737;29;20063;-69
2021/04/11 04:54:36;;;;;;;5.63;3.17;;;3.40;97.40;;;;;;4924173;29;20056;-70
2021/04/11 04:57:12;;;;;;;8.45;2.85;;;3.40;97.40;;;;;;4928464;29;20119;-70
2021/04/11 04:59:43;;;;;;;4.68;3.17;;;3.50;97.40;;;;;;4930321;29;20043;-70
2021/04/11 05:02:15;;;;;;;4.93;3.33;;;3.50;97.40;;;;;;4931812;29;20028;-70
2021/04/11 05:04:59;;;;;;;4.10;2.97;;;3.50;97.40;;;;;;4929991;29;20438;-70
2021/04/11 05:07:29;;;;;;;11.55;3.70;;;3.50;97.50;;;;;;4929600;29;20027;-69
2021/04/11 05:10:07;;;;;;;8.23;3.33;;;3.50;97.50;;;;;;4930180;29;20038;-70
2021/04/11 05:12:45;;;;;;;4.28;3.30;;;3.60;97.50;;;;;;4932547;29;20386;-70
2021/04/11 05:15:15;;;;;;;7.65;4.05;;;3.50;97.40;;;;;;4932827;29;20418;-71
2021/04/11 05:18:05;;;;;;;10.23;3.58;;;3.60;97.50;;;;;;4937395;29;20075;-70
2021/04/11 05:20:34;;;;;;;9.93;3.20;;;3.60;97.50;;;;;;4929359;29;20019;-70
2021/04/11 05:23:15;;;;;;;3.90;2.55;;;3.50;97.50;;;;;;4936392;29;20032;-70
2021/04/11 05:25:44;;;;;;;4.28;2.35;;;3.50;97.50;;;;;;4930754;29;20715;-70
2021/04/11 05:28:21;;;;;;;6.65;3.05;;;3.50;97.50;;;;;;4936238;29;20035;-70
2021/04/11 05:30:58;;;;;;;4.80;2.97;;;3.60;97.50;;;;;;4929323;29;20035;-70
2021/04/11 05:33:25;;;;;;;4.07;2.72;;;3.50;97.50;;;;;;4936248;29;20028;-70
2021/04/11 05:36:08;;;;;;;6.18;2.40;;;3.50;97.50;;;;;;4928380;29;20035;-70
2021/04/11 05:38:57;;;;;;;4.03;2.55;;;3.60;97.60;;;;;;4927172;29;20028;-70
2021/04/11 05:41:45;;;;;;;4.47;3.13;;;3.60;97.60;;;;;;4924926;29;20036;-70
2021/04/11 05:44:20;;;;;;;5.15;2.38;;;3.60;97.50;;;;;;4930064;29;20032;-70
2021/04/11 05:46:55;;;;;;;5.13;2.78;;;3.60;97.50;;;;;;4933799;29;20107;-70
2021/04/11 05:49:33;;;;;;;7.88;2.65;;;3.60;97.50;;;;;;4926329;29;20098;-70
2021/04/11 05:52:08;;;;;;;4.20;2.47;;;3.70;97.50;;;;;;4931184;29;20259;-70
2021/04/11 05:54:40;;;;;;;3.53;2.85;;;3.70;97.50;;;;;;4929462;29;20458;-70
2021/04/11 05:57:17;;;;;;;3.92;2.70;;;3.70;97.50;;;;;;4933070;29;20042;-70
2021/04/11 05:59:52;;;;;;;3.78;1.98;;;3.70;97.40;;;;;;4938135;29;20032;-69
2021/04/11 06:02:35;;;;;;;3.38;2.15;;;3.70;97.40;;;;;;4924537;29;20105;-69
2021/04/11 06:05:08;;;;;;;3.15;1.85;;;3.70;97.30;;;;;;4929337;29;20020;-69
2021/04/11 06:07:45;;;;;;;2.50;1.42;;;3.80;97.40;;;;;;4931216;29;20115;-69
2021/04/11 06:10:17;;;;;;;5.55;1.75;;;3.80;97.30;;;;;;4932357;29;20028;-69
2021/04/11 06:12:48;;;;;;;4.40;1.42;;;3.80;97.20;;;;;;4923921;29;20023;-69
2021/04/11 06:15:21;;;;;;;4.10;1.17;;;3.80;97.10;;;;;;4926293;29;20146;-69
2021/04/11 06:17:49;;;;;;;3.17;1.80;;;3.80;97.10;;;;;;4928054;29;20027;-69
2021/04/11 06:20:16;;;;;;;2.60;1.67;;;3.90;97.10;;;;;;4927842;29;20032;-69
2021/04/11 06:22:59;;;;;;;3.28;1.15;;;3.90;97.00;;;;;;4926604;29;20110;-69
2021/04/11 06:25:33;;;;;;;;;;;4.00;96.90;;;;;;4925705;29;20107;-69
2021/04/11 06:28:14;;;;;;;2.15;1.10;;;3.90;96.80;;;;;;4924811;29;20005;-69
2021/04/11 06:30:45;;;;;;;1.90;1.10;;;3.90;96.70;;;;;;4937829;29;20063;-69
2021/04/11 06:33:27;;;;;;;2.15;0.80;;;4.00;96.70;;;;;;4929717;29;20038;-69
2021/04/11 06:36:18;;;;;;;2.58;0.95;;;4.00;96.60;;;;;;4929396;29;20637;-69
2021/04/11 06:38:48;;;;;;;2.10;0.95;;;4.00;96.60;;;;;;4933955;29;20501;-69
2021/04/11 06:41:40;;;;;;;1.92;1.00;;;4.00;96.60;;;;;;4930986;29;20038;-69
2021/04/11 06:44:36;;;;;;;4.20;1.15;;;4.00;96.40;;;;;;4930543;29;20534;-69
2021/04/11 06:47:32;;;;;;;3.22;0.70;;;4.10;96.40;;;;;;4933526;29;20031;-69
2021/04/11 06:50:16;;;;;;;1.27;0.60;;;4.10;96.30;;;;;;4927938;29;20024;-69
2021/04/11 06:53:00;;;;;;;1.38;0.50;;;4.10;96.10;;;;;;4929508;29;20043;-69
2021/04/11 06:55:40;;;;;;;1.50;0.70;;;4.10;96.00;;;;;;4949427;28;20138;-69
2021/04/11 06:58:15;;;;;;;1.23;0.50;;;4.20;95.90;;;;;;4931576;29;20493;-69
2021/04/11 07:01:14;;;;;;;5.07;0.68;;;4.30;95.80;;;;;;4930591;29;20127;-69
2021/04/11 07:04:18;;;;;;;4.07;0.90;;;4.30;95.60;;;;;;4934157;29;20043;-69
2021/04/11 07:07:05;;;;;;;1.95;0.70;;;4.30;95.50;;;;;;4930326;29;20390;-69
2021/04/11 07:10:09;;;;;;;3.10;1.13;;;4.30;95.60;;;;;;4934198;29;20558;-69
2021/04/11 07:13:07;;;;;;;2.85;1.00;;;4.40;95.60;;;;;;4934857;29;20039;-69
2021/04/11 07:15:54;;;;;;;1.83;0.70;;;4.40;95.60;;;;;;4932314;29;20040;-69
2021/04/11 07:18:25;;;;;;;3.55;0.80;;;4.40;95.60;;;;;;4929174;29;20038;-69
2021/04/11 07:21:09;;;;;;;2.53;0.85;;;4.50;95.60;;;;;;4931416;29;20070;-69
2021/04/11 07:24:06;;;;;;;1.70;0.77;;;4.50;95.40;;;;;;4934558;29;20032;-69
2021/04/11 07:26:55;;;;;;;2.60;1.17;;;4.50;95.20;;;;;;4934521;29;20087;-69
2021/04/11 07:29:29;;;;;;;3.75;0.95;;;4.50;95.00;;;;;;4910740;29;20541;-69
2021/04/11 07:32:22;;;;;;;5.15;1.13;;;4.50;94.80;;;;;;4932596;29;20028;-68
2021/04/11 07:35:06;;;;;;;3.22;1.05;;;4.50;94.70;;;;;;4933308;29;20019;-69
2021/04/11 07:37:45;;;;;;;3.08;0.90;;;4.50;94.70;;;;;;4931662;29;20541;-69
2021/04/11 07:40:38;;;;;;;3.08;1.00;;;4.50;94.80;;;;;;4934245;29;20032;-68
2021/04/11 07:43:26;;;;;;;2.67;0.90;;;4.50;94.70;;;;;;4931931;29;20051;-68
2021/04/11 07:46:04;;;;;;;4.40;0.90;;;4.50;94.60;;;;;;4924442;29;20047;-69
2021/04/11 07:48:57;;;;;;;3.55;0.80;;;4.50;94.40;;;;;;4929293;29;20036;-69
2021/04/11 07:51:28;;;;;;;2.28;0.88;;;4.50;94.40;;;;;;4933482;29;20038;-69
2021/04/11 07:54:00;;;;;;;3.67;1.42;;;4.50;94.00;;;;;;4931807;29;20028;-68
2021/04/11 07:56:40;;;;;;;1.85;0.70;;;4.50;94.00;;;;;;4927812;29;20038;-69
2021/04/11 07:59:54;;;;;;;3.97;0.90;;;4.50;94.00;;;;;;4935775;29;20036;-69
2021/04/11 08:02:46;;;;;;;2.05;0.95;;;4.50;94.00;;;;;;4929121;29;20032;-68
2021/04/11 08:05:36;;;;;;;3.80;1.20;;;4.50;94.10;;;;;;4935299;29;20141;-68
2021/04/11 08:08:18;;;;;;;3.08;1.05;;;4.50;94.10;;;;;;4929526;29;20036;-69
2021/04/11 08:11:02;;;;;;;4.53;0.90;;;4.50;94.10;;;;;;4935226;29;20398;-69
2021/04/11 08:13:39;;;;;;;1.77;0.77;;;4.50;94.10;;;;;;4923226;29;20043;-69
2021/04/11 08:16:41;;;;;;;3.80;0.70;;;4.60;94.10;;;;;;4933798;29;20063;-68
2021/04/11 08:19:44;;;;;;;3.83;0.90;;;4.60;93.90;;;;;;4932562;29;20091;-69
2021/04/11 08:22:13;;;;;;;2.45;0.50;;;4.60;93.80;;;;;;4933906;29;20043;-67
2021/04/11 08:25:11;;;;;;;3.53;0.65;;;4.60;93.70;;;;;;4932713;29;20055;-67
2021/04/11 08:27:55;;;;;;;3.20;0.65;;;4.70;93.80;;;;;;4934605;29;20433;-66
2021/04/11 08:30:42;;;;;;;3.63;0.90;;;4.70;93.70;;;;;;4920689;29;20020;-67
2021/04/11 08:33:16;;;;;;;1.58;0.80;;;4.70;93.70;;;;;;4932848;29;20047;-68
2021/04/11 08:36:06;;;;;;;2.72;0.50;;;4.70;93.50;;;;;;4933644;29;20055;-67
2021/04/11 08:38:58;;;;;;;2.83;0.90;;;4.70;93.30;;;;;;4927644;29;20030;-67
2021/04/11 08:42:01;;;;;;;2.53;1.30;;;4.80;93.20;;;;;;4934447;29;20049;-67
2021/04/11 08:44:57;;;;;;;3.72;1.00;;;4.80;93.30;;;;;;4926910;29;20060;-67
2021/04/11 08:47:31;;;;;;;2.65;0.70;;;4.80;93.30;;;;;;4929568;29;20078;-67
2021/04/11 08:50:00;;;;;;;1.80;0.60;;;4.80;93.30;;;;;;4931517;29;20786;-67
2021/04/11 08:52:54;;;;;;;5.40;0.95;;;4.90;93.40;;;;;;4930967;29;20035;-69
2021/04/11 08:55:43;;;;;;;2.50;0.60;;;4.90;93.30;;;;;;4932657;29;20099;-69
2021/04/11 08:58:27;;;;;;;2.60;0.60;;;5.00;93.30;;;;;;4932892;29;20036;-68
2021/04/11 09:01:10;;;;;;;4.10;0.60;;;5.20;93.30;;;;;;4929568;29;20027;-68
2021/04/11 09:03:47;;;;;;;4.63;0.50;;;5.30;93.10;;;;;;4933757;29;20035;-67
2021/04/11 09:06:30;;;;;;;4.85;0.65;;;5.40;93.10;;;;;;4933304;28;20114;-67
2021/04/11 09:09:24;;;;;;;1.83;0.50;;;5.50;92.90;;;;;;4935524;29;20127;-67
2021/04/11 09:12:05;;;;;;;3.92;0.43;;;5.50;92.90;;;;;;4931546;29;20087;-67
2021/04/11 09:14:58;;;;;;;5.72;0.50;;;5.40;92.40;;;;;;4944500;29;20028;-67
2021/04/11 09:17:29;;;;;;;;;;;5.30;92.20;;;;;;4926109;29;20035;-67
2021/04/11 09:20:04;;;;;;;4.35;0.50;;;5.30;92.30;;;;;;4933762;29;19910;-67
2021/04/11 09:22:48;;;;;;;6.68;0.52;;;5.30;92.30;;;;;;4919910;29;20525;-67
2021/04/11 09:25:16;;;;;;;4.47;0.50;;;5.30;92.30;;;;;;4921877;29;20023;-68
2021/04/11 09:28:06;;;;;;;2.28;0.50;;;5.20;92.00;;;;;;4922100;29;20028;-67
2021/04/11 09:31:05;;;;;;;4.65;0.40;;;5.20;92.10;;;;;;4921860;29;20062;-67
2021/04/11 09:33:56;;;;;;;1.42;0.30;;;5.30;92.20;;;;;;4920335;29;20047;-67
2021/04/11 09:36:40;;;;;;;8.20;0.40;;;5.30;92.20;;;;;;4932314;29;20092;-67
2021/04/11 09:39:30;;;;;;;2.70;0.50;;;5.40;92.20;;;;;;4929588;29;20059;-67
2021/04/11 09:42:07;;;;;;;2.80;0.40;;;5.50;92.10;;;;;;4929716;29;20055;-68
2021/04/11 09:44:58;;;;;;;3.95;0.50;;;5.60;92.30;;;;;;4934568;29;20031;-68
2021/04/11 09:48:05;;;;;;;4.70;0.60;;;5.80;92.20;;;;;;4920172;29;20097;-68
2021/04/11 09:50:49;;;;;;;5.60;0.60;;;6.00;92.30;;;;;;4934009;29;20478;-68
2021/04/11 09:53:29;;;;;;;7.65;0.77;;;6.20;92.00;;;;;;4934963;29;20032;-67
2021/04/11 09:56:14;;;;;;;2.65;0.40;;;6.20;91.90;;;;;;4932740;29;20040;-68
2021/04/11 09:59:05;;;;;;;1.75;0.50;;;6.20;91.60;;;;;;4934119;29;20474;-68
2021/04/11 10:01:54;;;;;;;3.78;0.80;;;6.00;91.50;;;;;;4936937;29;20032;-69
2021/04/11 10:04:36;;;;;;;5.15;0.90;;;5.80;91.90;;;;;;4928957;29;20078;-69
2021/04/11 10:07:53;;;;;;;2.08;0.43;;;5.60;92.00;;;;;;4932064;29;20067;-68
2021/04/11 10:10:49;;;;;;;3.33;0.40;;;5.40;92.30;;;;;;4938196;29;20394;-68
2021/04/11 10:13:35;;;;;;;2.38;0.30;;;5.40;92.80;;;;;;4921734;29;20354;-68
2021/04/11 10:16:19;;;;;;;1.67;0.40;;;5.50;93.00;;;;;;4933744;29;20038;-68
2021/04/11 10:19:07;;;;;;;3.80;0.30;;;5.60;92.90;;;;;;4934516;29;20489;-68
2021/04/11 10:21:53;;;;;;;2.15;0.30;;;5.70;92.70;;;;;;4938134;29;20035;-68
2021/04/11 10:24:44;;;;;;;2.72;0.60;;;5.70;92.70;;;;;;4937856;29;20118;-68
2021/04/11 10:27:19;;;;;;;5.15;0.50;;;5.80;92.40;;;;;;4934072;29;20027;-68
2021/04/11 10:29:46;;;;;;;2.67;0.40;;;5.70;92.40;;;;;;4936326;29;20478;-68
2021/04/11 10:32:27;;;;;;;3.05;0.30;;;5.70;92.20;;;;;;4938452;29;20463;-68
2021/04/11 10:35:40;;;;;;;3.05;0.30;;;5.70;92.40;;;;;;4930407;29;20402;-67
2021/04/11 10:38:11;;;;;;;2.42;0.40;;;5.60;92.40;;;;;;4934120;29;20059;-67
2021/04/11 10:41:14;;;;;;;2.90;0.43;;;5.60;92.30;;;;;;4923229;29;20046;-67
2021/04/11 10:43:58;;;;;;;4.38;0.40;;;5.50;92.30;;;;;;4920777;29;20032;-67
2021/04/11 10:46:36;;;;;;;2.38;0.50;;;5.50;92.30;;;;;;4931571;29;20566;-67
2021/04/11 10:49:24;;;;;;;3.97;0.32;;;5.50;92.30;;;;;;4931971;29;20039;-67
2021/04/11 10:52:00;;;;;;;1.02;0.38;;;5.50;92.40;;;;;;4928287;29;20032;-67
2021/04/11 10:54:57;;;;;;;2.60;0.40;;;5.50;91.90;;;;;;4939045;29;20131;-67
2021/04/11 10:57:49;;;;;;;2.42;0.60;;;5.50;91.80;;;;;;4931499;29;20553;-68
2021/04/11 11:00:24;;;;;;;3.65;0.68;;;5.60;91.90;;;;;;4929707;29;20036;-68
2021/04/11 11:03:05;;;;;;;2.97;0.40;;;5.70;91.80;;;;;;4930481;29;20110;-68
2021/04/11 11:06:01;;;;;;;3.88;0.73;;;5.80;91.50;;;;;;4924725;29;20035;-68
2021/04/11 11:08:41;;;;;;;2.83;0.40;;;6.10;91.40;;;;;;4932316;29;20477;-68
2021/04/11 11:11:28;;;;;;;5.07;0.50;;;6.30;91.10;;;;;;4931433;29;20038;-68
2021/04/11 11:14:06;;;;;;;1.50;0.20;;;6.60;90.80;;;;;;4934086;29;20036;-67
2021/04/11 11:16:43;;;;;;;4.15;0.65;;;6.70;90.30;;;;;;4919370;29;20043;-68
2021/04/11 11:19:36;;;;;;;4.18;0.40;;;6.90;89.20;;;;;;4932066;29;20091;-68
2021/04/11 11:22:18;;;;;;;1.48;0.40;;;6.90;88.40;;;;;;4936451;29;20433;-67
2021/04/11 11:25:10;;;;;;;4.47;0.50;;;6.90;88.00;;;;;;4935822;29;20035;-68
2021/04/11 11:28:01;;;;;;;3.63;0.28;;;6.90;87.90;;;;;;4929012;29;20054;-67
2021/04/11 11:30:56;;;;;;;3.20;0.30;;;6.80;86.20;;;;;;4948668;29;20167;-68
2021/04/11 11:33:44;;;;;;;2.70;0.30;;;6.70;86.40;;;;;;4935114;29;20036;-68
2021/04/11 11:36:41;;;;;;;2.47;0.40;;;6.60;86.70;;;;;;4936467;29;20020;-68
2021/04/11 11:39:35;;;;;;;1.90;0.30;;;6.50;87.10;;;;;;4935915;29;20035;-68
2021/04/11 11:42:17;;;;;;;1.02;0.30;;;6.50;87.50;;;;;;4930027;29;20059;-68
2021/04/11 11:44:52;;;;;;;2.05;0.30;;;6.50;88.00;;;;;;4934934;29;20509;-68
2021/04/11 11:47:30;;;;;;;6.70;0.40;;;6.60;88.30;;;;;;4932419;29;20103;-68
2021/04/11 11:50:16;;;;;;;2.60;0.30;;;6.80;87.90;;;;;;4936232;29;20024;-68
2021/04/11 11:53:01;;;;;;;5.72;0.50;;;6.90;86.90;;;;;;4935554;29;20024;-69
2021/04/11 11:55:36;;;;;;;2.22;0.35;;;7.00;85.00;;;;;;4934971;29;20052;-68
2021/04/11 11:58:23;;;;;;;2.78;0.20;;;7.00;85.20;;;;;;4935540;29;20373;-69
2021/04/11 12:01:04;;;;;;;5.43;0.32;;;7.00;85.30;;;;;;4934782;29;20024;-69
2021/04/11 12:03:33;;;;;;;1.77;0.40;;;6.90;84.30;;;;;;4930769;29;20385;-69
2021/04/11 12:06:17;;;;;;;2.88;0.30;;;6.90;84.20;;;;;;4932543;29;20386;-69
2021/04/11 12:09:10;;;;;;;2.65;0.20;;;7.00;83.30;;;;;;4934635;29;20023;-69
2021/04/11 12:11:54;;;;;;;1.00;0.30;;;7.10;81.80;;;;;;4933427;29;20086;-69
2021/04/11 12:14:30;;;;;;;3.67;0.30;;;7.30;80.90;;;;;;4929103;29;20035;-68
2021/04/11 12:17:21;;;;;;;2.92;0.30;;;7.40;81.60;;;;;;4933561;29;20023;-68
2021/04/11 12:20:02;;;;;;;1.20;0.30;;;7.70;81.00;;;;;;4934898;29;20525;-68
2021/04/11 12:22:37;;;;;;;2.60;0.50;;;7.80;81.00;;;;;;4925582;29;20031;-69
2021/04/11 12:25:25;;;;;;;2.15;0.30;;;8.00;80.70;;;;;;4933894;29;20035;-68
2021/04/11 12:27:51;;;;;;;3.33;0.22;;;8.20;79.50;;;;;;4929962;29;20449;-69
2021/04/11 12:30:36;;;;;;;1.13;0.20;;;8.20;79.50;;;;;;4934980;29;20028;-69
2021/04/11 12:33:11;;;;;;;3.15;0.40;;;8.20;79.00;;;;;;4925135;29;20156;-69
2021/04/11 12:35:50;;;;;;;3.47;0.35;;;8.20;76.40;;;;;;4933037;29;20477;-68
2021/04/11 12:38:45;;;;;;;2.92;0.55;;;8.10;77.60;;;;;;4930378;29;20035;-69
2021/04/11 12:41:17;;;;;;;1.45;0.20;;;8.00;75.50;;;;;;4929940;29;20032;-68
2021/04/11 12:43:49;;;;;;;3.55;0.40;;;7.90;75.70;;;;;;4933011;29;20120;-68
2021/04/11 12:46:33;;;;;;;4.00;0.20;;;7.90;76.30;;;;;;4931485;29;22315;-68
2021/04/11 12:49:22;;;;;;;1.67;0.35;;;7.90;76.20;;;;;;4931951;29;20036;-69
2021/04/11 12:51:53;;;;;;;1.15;0.20;;;7.90;76.20;;;;;;4934442;29;20082;-68
2021/04/11 12:54:33;;;;;;;0.40;0.10;;;7.90;75.30;;;;;;4932369;29;20050;-68
2021/04/11 12:57:22;;;;;;;2.65;0.20;;;7.90;75.40;;;;;;4929187;29;20434;-71
2021/04/11 13:00:05;;;;;;;2.13;0.20;;;7.90;74.30;;;;;;4933035;29;20379;-68
2021/04/11 13:02:52;;;;;;;1.63;0.10;;;7.80;73.50;;;;;;4928828;29;20031;-68
2021/04/11 13:05:44;;;;;;;1.95;0.20;;;8.00;74.60;;;;;;4931254;29;20031;-68
2021/04/11 13:08:28;;;;;;;1.05;0.20;;;8.10;74.80;;;;;;4934375;29;20027;-69
2021/04/11 13:10:59;;;;;;;0.85;0.15;;;8.20;73.60;;;;;;4927697;29;20558;-68
2021/04/11 13:13:57;;;;;;;0.80;0.20;;;8.30;73.50;;;;;;4934806;29;20112;-67
2021/04/11 13:16:30;;;;;;;2.33;0.20;;;8.60;73.60;;;;;;4924250;29;20036;-67
2021/04/11 13:19:15;;;;;;;1.88;0.30;;;8.80;70.60;;;;;;4928990;29;20028;-69
2021/04/11 13:21:45;;;;;;;3.95;0.30;;;8.70;70.10;;;;;;4929669;29;20031;-69
2021/04/11 13:24:47;;;;;;;1.42;0.28;;;8.50;70.60;;;;;;4926094;29;20028;-69
2021/04/11 13:27:37;;;;;;;3.37;0.20;;;8.20;70.70;;;;;;4933465;29;20038;-69
2021/04/11 13:30:17;;;;;;;2.03;0.20;;;8.00;71.20;;;;;;4933864;29;20367;-69
2021/04/11 13:33:11;;;;;;;1.70;0.20;;;8.00;71.60;;;;;;4947536;28;20127;-69
2021/04/11 13:36:09;;;;;;;1.08;0.20;;;8.00;71.70;;;;;;4930939;23;20511;-76
2021/04/11 13:38:41;;;;;;;1.85;0.20;;;8.00;70.80;;;;;;4939630;28;20123;-77
2021/04/11 13:41:34;;;;;;;2.10;0.30;;;8.00;71.40;;;;;;4947652;29;20384;-76
2021/04/11 13:44:03;;;;;;;3.67;0.22;;;8.20;72.30;;;;;;4949967;29;20387;-76
2021/04/11 13:46:51;;;;;;;1.17;0.20;;;8.30;71.70;;;;;;4945910;29;20035;-76
2021/04/11 13:49:39;;;;;;;1.33;0.13;;;8.50;72.30;;;;;;4952666;29;20034;-77
2021/04/11 13:52:36;;;;;;;1.33;0.20;;;8.70;70.10;;;;;;4946518;29;20118;-77
2021/04/11 13:55:17;;;;;;;1.65;0.55;;;8.70;69.20;;;;;;4952002;29;20028;-77
2021/04/11 13:58:01;;;;;;;1.17;0.10;;;8.80;68.40;;;;;;4946391;29;20060;-78